createdAt,value
2023-05-05T00:00:33.642Z,63.50
2023-05-05T00:01:33.825Z,63.64
2023-05-05T00:02:33.965Z,63.62
2023-05-05T00:03:34.201Z,63.77
2023-05-05T00:04:34.166Z,63.75
2023-05-05T00:05:34.312Z,63.77
2023-05-05T00:06:34.449Z,63.77
2023-05-05T00:07:34.679Z,63.85
2023-05-05T00:08:34.750Z,63.97
2023-05-05T00:09:34.841Z,63.92
2023-05-05T00:10:34.988Z,64.05
2023-05-05T00:11:35.130Z,64.18
2023-05-05T00:12:35.359Z,64.18
2023-05-05T00:13:35.457Z,64.31
2023-05-05T00:14:35.559Z,64.39
2023-05-05T00:15:35.705Z,64.35
2023-05-05T00:16:35.771Z,64.35
2023-05-05T00:17:35.956Z,64.49
2023-05-05T00:18:36.016Z,64.57
2023-05-05T00:19:36.163Z,64.64
2023-05-05T00:20:36.317Z,64.63
2023-05-05T00:21:36.422Z,64.71
2023-05-05T00:22:36.586Z,64.82
2023-05-05T00:23:36.779Z,64.78
2023-05-05T00:24:36.810Z,64.91
2023-05-05T00:25:36.950Z,65.12
2023-05-05T00:26:37.161Z,65.13
2023-05-05T00:27:38.935Z,65.14
2023-05-05T00:28:37.349Z,65.15
2023-05-05T00:29:37.490Z,65.33
2023-05-05T00:30:37.680Z,65.37
2023-05-05T00:31:37.894Z,65.37
2023-05-05T00:32:37.906Z,65.41
2023-05-05T00:33:38.054Z,65.49
2023-05-05T00:34:38.158Z,65.56
2023-05-05T00:35:38.304Z,65.65
2023-05-05T00:36:38.397Z,65.70
2023-05-05T00:37:38.567Z,65.78
2023-05-05T00:38:38.650Z,65.84
2023-05-05T00:39:38.793Z,65.91
2023-05-05T00:40:38.922Z,66.01
2023-05-05T00:41:39.016Z,66.09
2023-05-05T00:42:39.156Z,66.09
2023-05-05T00:43:39.374Z,66.05
2023-05-05T00:44:39.435Z,66.15
2023-05-05T00:45:39.539Z,66.21
2023-05-05T00:46:39.765Z,66.14
2023-05-05T00:47:39.814Z,66.35
2023-05-05T00:48:39.949Z,66.36
2023-05-05T00:49:40.097Z,66.30
2023-05-05T00:50:40.246Z,66.38
2023-05-05T00:51:40.431Z,66.45
2023-05-05T00:52:40.496Z,66.55
2023-05-05T00:53:40.620Z,66.50
2023-05-05T00:54:40.730Z,66.85
2023-05-05T00:55:40.827Z,67.01
2023-05-05T00:56:40.952Z,67.04
2023-05-05T00:57:41.049Z,67.21
2023-05-05T00:58:41.187Z,67.37
2023-05-05T00:59:41.340Z,67.48
2023-05-05T01:00:41.396Z,67.57
2023-05-05T01:01:41.575Z,67.58
2023-05-05T01:02:41.696Z,67.60
2023-05-05T01:03:41.976Z,67.61
2023-05-05T01:04:41.884Z,67.80
2023-05-05T01:05:42.044Z,67.77
2023-05-05T01:06:42.158Z,67.86
2023-05-05T01:07:42.282Z,67.91
2023-05-05T01:08:42.436Z,67.93
2023-05-05T01:09:42.539Z,67.96
2023-05-05T01:10:42.709Z,68.02
2023-05-05T01:11:42.827Z,68.09
2023-05-05T01:12:42.965Z,68.20
2023-05-05T01:13:43.046Z,68.27
2023-05-05T01:14:43.150Z,68.37
2023-05-05T01:15:43.274Z,68.47
2023-05-05T01:16:43.452Z,68.50
2023-05-05T01:17:43.531Z,68.59
2023-05-05T01:18:43.593Z,68.57
2023-05-05T01:19:43.717Z,68.83
2023-05-05T01:20:43.862Z,68.94
2023-05-05T01:21:43.957Z,68.97
2023-05-05T01:22:44.070Z,68.82
2023-05-05T01:23:44.270Z,68.80
2023-05-05T01:24:44.383Z,68.72
2023-05-05T01:25:44.504Z,68.73
2023-05-05T01:26:44.816Z,68.79
2023-05-05T01:27:44.760Z,68.75
2023-05-05T01:28:44.854Z,68.81
2023-05-05T01:29:45.099Z,68.91
2023-05-05T01:30:45.126Z,68.98
2023-05-05T01:31:45.417Z,69.00
2023-05-05T01:32:45.396Z,69.03
2023-05-05T01:33:45.531Z,69.10
2023-05-05T01:34:45.651Z,69.23
2023-05-05T01:35:45.868Z,69.24
2023-05-05T01:36:45.945Z,69.31
2023-05-05T01:37:46.047Z,69.31
2023-05-05T01:38:46.184Z,69.30
2023-05-05T01:39:46.326Z,69.51
2023-05-05T01:40:46.492Z,69.78
2023-05-05T01:41:46.590Z,69.86
2023-05-05T01:42:47.234Z,69.87
2023-05-05T01:43:46.878Z,69.95
2023-05-05T01:44:46.913Z,70.03
2023-05-05T01:45:47.081Z,70.22
2023-05-05T01:46:47.116Z,70.30
2023-05-05T01:47:47.254Z,70.40
2023-05-05T01:48:47.388Z,70.56
2023-05-05T01:49:47.490Z,70.47
2023-05-05T01:50:47.549Z,70.57
2023-05-05T01:51:47.687Z,70.63
2023-05-05T01:52:47.770Z,70.71
2023-05-05T01:53:47.879Z,70.83
2023-05-05T01:54:48.010Z,70.87
2023-05-05T01:55:48.116Z,71.03
2023-05-05T01:56:48.235Z,71.01
2023-05-05T01:57:48.383Z,71.05
2023-05-05T01:58:48.512Z,71.13
2023-05-05T01:59:48.577Z,71.19
2023-05-05T02:00:48.714Z,71.23
2023-05-05T02:01:48.777Z,71.26
2023-05-05T02:02:48.928Z,71.29
2023-05-05T02:03:48.993Z,71.02
2023-05-05T02:04:49.124Z,71.14
2023-05-05T02:05:49.270Z,71.25
2023-05-05T02:06:49.383Z,71.25
2023-05-05T02:07:49.772Z,71.28
2023-05-05T02:08:49.722Z,71.27
2023-05-05T02:09:49.725Z,71.30
2023-05-05T02:10:49.834Z,71.43
2023-05-05T02:11:49.946Z,71.46
2023-05-05T02:12:50.124Z,71.58
2023-05-05T02:13:50.275Z,71.68
2023-05-05T02:14:50.616Z,71.80
2023-05-05T02:15:50.423Z,71.92
2023-05-05T02:16:50.524Z,72.08
2023-05-05T02:17:50.664Z,72.23
2023-05-05T02:18:50.730Z,72.31
2023-05-05T02:19:50.873Z,72.35
2023-05-05T02:20:51.021Z,72.39
2023-05-05T02:21:51.152Z,72.52
2023-05-05T02:22:51.306Z,72.61
2023-05-05T02:23:51.533Z,72.62
2023-05-05T02:24:51.622Z,72.63
2023-05-05T02:25:51.669Z,72.97
2023-05-05T02:26:51.797Z,73.10
2023-05-05T02:27:51.939Z,73.09
2023-05-05T02:28:52.076Z,73.06
2023-05-05T02:29:52.220Z,73.14
2023-05-05T02:30:52.348Z,73.36
2023-05-05T02:31:52.692Z,73.37
2023-05-05T02:32:52.633Z,74.09
2023-05-05T02:33:52.756Z,74.18
2023-05-05T02:34:52.888Z,73.88
2023-05-05T02:35:53.046Z,73.85
2023-05-05T02:36:53.136Z,73.89
2023-05-05T02:37:53.269Z,73.85
2023-05-05T02:38:53.498Z,73.91
2023-05-05T02:39:53.528Z,73.94
2023-05-05T02:40:53.664Z,74.28
2023-05-05T02:41:53.759Z,74.35
2023-05-05T02:42:53.922Z,74.67
2023-05-05T02:43:54.135Z,74.93
2023-05-05T02:44:54.155Z,74.87
2023-05-05T02:45:54.350Z,74.70
2023-05-05T02:46:54.578Z,74.46
2023-05-05T02:47:54.551Z,74.45
2023-05-05T02:48:54.681Z,74.46
2023-05-05T02:49:54.818Z,74.61
2023-05-05T02:50:54.956Z,74.75
2023-05-05T02:51:55.152Z,74.87
2023-05-05T02:52:55.206Z,74.96
2023-05-05T02:53:55.351Z,75.03
2023-05-05T02:54:55.513Z,75.10
2023-05-05T02:55:55.663Z,75.11
2023-05-05T02:56:55.766Z,75.25
2023-05-05T02:57:55.858Z,75.40
2023-05-05T02:58:55.963Z,75.54
2023-05-05T02:59:56.093Z,75.64
2023-05-05T03:00:56.345Z,75.65
2023-05-05T03:01:56.467Z,75.76
2023-05-05T03:02:56.521Z,75.81
2023-05-05T03:03:56.731Z,75.74
2023-05-05T03:04:56.775Z,75.82
2023-05-05T03:05:56.908Z,75.89
2023-05-05T03:06:57.056Z,76.06
2023-05-05T03:07:57.207Z,76.25
2023-05-05T03:08:57.317Z,76.40
2023-05-05T03:09:57.384Z,76.47
2023-05-05T03:10:57.538Z,76.46
2023-05-05T03:11:57.667Z,76.56
2023-05-05T03:12:57.907Z,76.70
2023-05-05T03:13:57.928Z,76.76
2023-05-05T03:14:58.044Z,76.87
2023-05-05T03:15:58.190Z,77.02
2023-05-05T03:16:58.355Z,77.09
2023-05-05T03:17:58.494Z,77.30
2023-05-05T03:18:58.556Z,77.50
2023-05-05T03:19:58.697Z,77.55
2023-05-05T03:20:58.883Z,77.52
2023-05-05T03:21:59.008Z,77.56
2023-05-05T03:22:59.121Z,77.72
2023-05-05T03:23:59.294Z,77.82
2023-05-05T03:24:59.338Z,77.87
2023-05-05T03:25:59.464Z,78.02
2023-05-05T03:26:59.639Z,78.03
2023-05-05T03:27:59.733Z,78.06
2023-05-05T03:28:59.851Z,78.09
2023-05-05T03:29:59.982Z,77.99
2023-05-05T03:31:00.132Z,77.82
2023-05-05T03:32:00.335Z,77.88
2023-05-05T03:33:00.414Z,77.70
2023-05-05T03:34:00.544Z,77.57
2023-05-05T03:35:00.668Z,77.85
2023-05-05T03:36:00.782Z,78.13
2023-05-05T03:37:00.949Z,78.19
2023-05-05T03:38:01.034Z,78.04
2023-05-05T03:39:01.171Z,78.29
2023-05-05T03:40:01.307Z,78.45
2023-05-05T03:41:01.442Z,78.64
2023-05-05T03:42:01.568Z,78.68
2023-05-05T03:43:01.669Z,78.81
2023-05-05T03:44:01.805Z,78.84
2023-05-05T03:45:01.871Z,79.05
2023-05-05T03:46:02.051Z,79.20
2023-05-05T03:47:02.163Z,79.26
2023-05-05T03:48:02.302Z,79.39
2023-05-05T03:49:02.405Z,79.52
2023-05-05T03:50:02.542Z,79.46
2023-05-05T03:51:02.662Z,79.35
2023-05-05T03:52:02.797Z,79.26
2023-05-05T03:53:02.881Z,79.02
2023-05-05T03:54:03.008Z,78.93
2023-05-05T03:55:03.168Z,78.96
2023-05-05T03:56:03.322Z,79.13
2023-05-05T03:57:03.462Z,79.67
2023-05-05T03:58:03.562Z,80.14
2023-05-05T03:59:03.749Z,80.11
2023-05-05T04:00:03.822Z,80.10
2023-05-05T04:01:03.954Z,80.21
2023-05-05T04:02:04.115Z,80.24
2023-05-05T04:03:04.367Z,80.24
2023-05-05T04:04:04.409Z,80.29
2023-05-05T04:05:04.500Z,80.21
2023-05-05T04:06:04.552Z,80.14
2023-05-05T04:07:04.704Z,79.91
2023-05-05T04:08:04.835Z,79.67
2023-05-05T04:09:04.962Z,79.60
2023-05-05T04:10:05.140Z,79.61
2023-05-05T04:11:05.198Z,79.54
2023-05-05T04:12:05.328Z,79.45
2023-05-05T04:13:05.518Z,79.56
2023-05-05T04:14:05.653Z,79.67
2023-05-05T04:15:05.745Z,79.75
2023-05-05T04:16:05.902Z,79.85
2023-05-05T04:17:06.024Z,79.97
2023-05-05T04:18:06.189Z,80.25
2023-05-05T04:19:06.297Z,80.22
2023-05-05T04:20:06.608Z,80.45
2023-05-05T04:21:06.531Z,80.62
2023-05-05T04:22:06.639Z,80.52
2023-05-05T04:23:06.793Z,80.59
2023-05-05T04:24:06.948Z,80.72
2023-05-05T04:25:07.099Z,80.75
2023-05-05T04:26:07.205Z,80.77
2023-05-05T04:27:07.295Z,81.06
2023-05-05T04:28:07.564Z,81.06
2023-05-05T04:29:07.556Z,81.18
2023-05-05T04:30:08.176Z,81.16
2023-05-05T04:31:07.818Z,81.17
2023-05-05T04:32:07.956Z,81.15
2023-05-05T04:33:08.035Z,81.11
2023-05-05T04:34:08.171Z,81.17
2023-05-05T04:35:08.280Z,81.08
2023-05-05T04:36:08.371Z,81.10
2023-05-05T04:37:08.534Z,81.18
2023-05-05T04:38:08.633Z,81.35
2023-05-05T04:39:08.771Z,81.31
2023-05-05T04:40:09.186Z,81.11
2023-05-05T04:41:09.011Z,81.25
2023-05-05T04:42:09.140Z,81.40
2023-05-05T04:43:09.359Z,81.48
2023-05-05T04:44:09.425Z,81.51
2023-05-05T04:45:09.604Z,81.49
2023-05-05T04:46:09.769Z,81.46
2023-05-05T04:47:10.592Z,81.41
2023-05-05T04:48:10.042Z,81.49
2023-05-05T04:49:10.082Z,81.58
2023-05-05T04:50:10.529Z,81.57
2023-05-05T04:51:10.339Z,81.58
2023-05-05T04:52:10.462Z,81.49
2023-05-05T04:53:10.634Z,81.46
2023-05-05T04:54:10.717Z,81.40
2023-05-05T04:55:10.844Z,81.37
2023-05-05T04:56:10.998Z,81.41
2023-05-05T04:57:11.096Z,81.40
2023-05-05T04:58:11.212Z,81.35
2023-05-05T04:59:11.352Z,81.23
2023-05-05T05:00:11.672Z,81.09
2023-05-05T05:01:11.641Z,81.08
2023-05-05T05:02:11.858Z,81.10
2023-05-05T05:03:11.955Z,81.12
2023-05-05T05:04:12.104Z,81.07
2023-05-05T05:05:12.232Z,81.17
2023-05-05T05:06:12.314Z,81.26
2023-05-05T05:07:12.483Z,81.26
2023-05-05T05:08:12.574Z,81.23
2023-05-05T05:09:12.731Z,81.28
2023-05-05T05:10:12.857Z,81.18
2023-05-05T05:11:12.997Z,81.22
2023-05-05T05:12:13.197Z,81.11
2023-05-05T05:13:13.428Z,81.00
2023-05-05T05:14:13.390Z,80.98
2023-05-05T05:15:13.519Z,81.03
2023-05-05T05:16:13.682Z,81.06
2023-05-05T05:17:13.808Z,81.13
2023-05-05T05:18:13.896Z,81.16
2023-05-05T05:19:14.035Z,81.05
2023-05-05T05:20:14.218Z,81.03
2023-05-05T05:21:14.306Z,80.89
2023-05-05T05:22:14.444Z,80.95
2023-05-05T05:23:14.734Z,80.73
2023-05-05T05:24:14.715Z,80.73
2023-05-05T05:25:14.873Z,80.55
2023-05-05T05:26:14.959Z,80.73
2023-05-05T05:27:15.092Z,80.56
2023-05-05T05:28:15.236Z,80.62
2023-05-05T05:29:15.347Z,80.51
2023-05-05T05:30:15.473Z,80.39
2023-05-05T05:31:15.634Z,80.38
2023-05-05T05:32:15.901Z,80.38
2023-05-05T05:33:15.940Z,80.12
2023-05-05T05:34:16.035Z,79.83
2023-05-05T05:35:16.110Z,80.02
2023-05-05T05:36:16.257Z,79.06
2023-05-05T05:37:16.368Z,79.29
2023-05-05T05:38:16.549Z,79.05
2023-05-05T05:39:16.611Z,78.40
2023-05-05T05:40:16.748Z,78.59
2023-05-05T05:41:16.840Z,78.69
2023-05-05T05:42:16.967Z,78.06
2023-05-05T05:43:17.120Z,77.28
2023-05-05T05:44:17.234Z,77.46
2023-05-05T05:45:17.494Z,77.81
2023-05-05T05:46:17.559Z,77.99
2023-05-05T05:47:17.644Z,76.15
2023-05-05T05:48:17.738Z,76.74
2023-05-05T05:49:17.890Z,76.54
2023-05-05T05:50:18.017Z,76.27
2023-05-05T05:51:18.161Z,75.31
2023-05-05T05:52:18.288Z,75.92
2023-05-05T05:53:18.449Z,74.74
2023-05-05T05:54:18.543Z,75.18
2023-05-05T05:55:18.687Z,74.22
2023-05-05T05:56:18.779Z,73.98
2023-05-05T05:57:18.918Z,73.32
2023-05-05T05:58:19.066Z,73.50
2023-05-05T05:59:19.259Z,72.83
2023-05-05T06:00:19.355Z,73.04
2023-05-05T06:01:19.762Z,73.16
2023-05-05T06:02:19.650Z,72.22
2023-05-05T06:03:19.967Z,71.84
2023-05-05T06:04:19.991Z,71.73
2023-05-05T06:05:20.056Z,71.85
2023-05-05T06:06:20.124Z,72.77
2023-05-05T06:07:20.233Z,72.26
2023-05-05T06:08:20.347Z,71.91
2023-05-05T06:09:20.556Z,72.72
2023-05-05T06:11:20.745Z,71.10
2023-05-05T06:12:20.935Z,71.76
2023-05-05T06:13:20.962Z,71.97
2023-05-05T06:14:21.111Z,71.42
2023-05-05T06:15:21.228Z,70.77
2023-05-05T06:16:21.385Z,70.82
2023-05-05T06:17:21.444Z,70.70
2023-05-05T06:18:21.629Z,71.36
2023-05-05T06:19:21.764Z,72.32
2023-05-05T06:20:21.826Z,70.09
2023-05-05T06:21:21.963Z,70.06
2023-05-05T06:22:22.125Z,70.83
2023-05-05T06:23:22.216Z,69.91
2023-05-05T06:24:22.365Z,70.29
2023-05-05T06:25:22.445Z,70.44
2023-05-05T06:26:22.581Z,70.32
2023-05-05T06:27:22.704Z,70.85
2023-05-05T06:28:22.818Z,71.59
2023-05-05T06:29:22.940Z,71.53
2023-05-05T06:30:23.068Z,71.61
2023-05-05T06:31:23.263Z,71.52
2023-05-05T06:32:23.279Z,70.74
2023-05-05T06:33:23.398Z,70.67
2023-05-05T06:34:23.542Z,70.14
2023-05-05T06:35:23.653Z,69.77
2023-05-05T06:36:24.127Z,70.30
2023-05-05T06:37:23.928Z,69.19
2023-05-05T06:38:24.079Z,69.64
2023-05-05T06:39:24.236Z,70.79
2023-05-05T06:40:24.318Z,70.99
2023-05-05T06:41:24.454Z,72.19
2023-05-05T06:42:24.557Z,72.13
2023-05-05T06:43:24.745Z,72.17
2023-05-05T06:44:24.849Z,71.85
2023-05-05T06:45:24.928Z,70.39
2023-05-05T06:46:25.035Z,69.96
2023-05-05T06:47:25.234Z,70.25
2023-05-05T06:48:25.261Z,70.42
2023-05-05T06:49:25.418Z,71.39
2023-05-05T06:50:25.548Z,72.73
2023-05-05T06:51:25.700Z,71.38
2023-05-05T06:52:25.832Z,70.95
2023-05-05T06:53:25.936Z,69.54
2023-05-05T06:54:26.034Z,69.56
2023-05-05T06:55:26.150Z,70.42
2023-05-05T06:56:26.245Z,69.21
2023-05-05T06:57:26.399Z,69.04
2023-05-05T06:58:26.525Z,68.74
2023-05-05T06:59:26.644Z,69.31
2023-05-05T07:00:26.802Z,69.71
2023-05-05T07:01:26.963Z,68.75
2023-05-05T07:02:27.133Z,71.11
2023-05-05T07:03:27.169Z,68.86
2023-05-05T07:04:27.262Z,70.54
2023-05-05T07:05:27.518Z,69.57
2023-05-05T07:06:27.496Z,69.68
2023-05-05T07:07:27.694Z,67.34
2023-05-05T07:08:27.787Z,67.07
2023-05-05T07:09:28.020Z,66.80
2023-05-05T07:10:28.146Z,66.27
2023-05-05T07:11:28.489Z,67.30
2023-05-05T07:12:28.315Z,67.26
2023-05-05T07:13:28.372Z,67.36
2023-05-05T07:14:28.505Z,67.24
2023-05-05T07:15:29.816Z,67.52
2023-05-05T07:16:28.791Z,68.26
2023-05-05T07:17:28.946Z,68.98
2023-05-05T07:18:28.984Z,68.97
2023-05-05T07:19:29.187Z,68.71
2023-05-05T07:20:29.239Z,68.48
2023-05-05T07:21:29.336Z,67.16
2023-05-05T07:22:29.508Z,67.90
2023-05-05T07:23:29.665Z,67.75
2023-05-05T07:24:29.751Z,68.60
2023-05-05T07:25:29.897Z,67.86
2023-05-05T07:26:30.067Z,68.54
2023-05-05T07:27:30.135Z,67.62
2023-05-05T07:28:30.280Z,68.02
2023-05-05T07:29:30.388Z,66.55
2023-05-05T07:30:30.481Z,67.59
2023-05-05T07:31:30.687Z,67.01
2023-05-05T07:32:30.810Z,67.53
2023-05-05T07:33:30.896Z,67.82
2023-05-05T07:34:31.005Z,68.01
2023-05-05T07:35:31.147Z,67.94
2023-05-05T07:36:31.334Z,68.23
2023-05-05T07:37:31.447Z,69.76
2023-05-05T07:38:31.582Z,67.51
2023-05-05T07:39:31.682Z,67.63
2023-05-05T07:40:31.789Z,67.42
2023-05-05T07:41:31.906Z,67.46
2023-05-05T07:42:32.032Z,68.39
2023-05-05T07:43:32.180Z,68.54
2023-05-05T07:44:32.266Z,67.14
2023-05-05T07:45:33.641Z,67.56
2023-05-05T07:46:32.638Z,68.23
2023-05-05T07:47:32.722Z,65.99
2023-05-05T07:48:32.852Z,67.00
2023-05-05T07:49:32.927Z,67.79
2023-05-05T07:50:33.045Z,65.66
2023-05-05T07:51:34.852Z,65.20
2023-05-05T07:52:44.948Z,66.29
2023-05-05T07:53:34.414Z,65.69
2023-05-05T07:54:33.486Z,66.88
2023-05-05T07:55:33.625Z,65.63
2023-05-05T07:56:33.755Z,64.98
2023-05-05T07:57:33.869Z,63.86
2023-05-05T07:58:33.972Z,63.22
2023-05-05T07:59:34.121Z,63.32
2023-05-05T08:00:34.227Z,63.77
2023-05-05T08:01:34.339Z,62.98
2023-05-05T08:02:34.467Z,64.54
2023-05-05T08:03:34.733Z,62.40
2023-05-05T08:04:34.716Z,61.60
2023-05-05T08:05:36.437Z,62.20
2023-05-05T08:06:34.901Z,62.92
2023-05-05T08:07:35.054Z,63.12
2023-05-05T08:08:35.152Z,64.16
2023-05-05T08:09:35.242Z,64.17
2023-05-05T08:10:35.359Z,63.99
2023-05-05T08:11:35.459Z,64.69
2023-05-05T08:12:35.591Z,64.20
2023-05-05T08:13:35.675Z,65.28
2023-05-05T08:14:35.872Z,64.57
2023-05-05T08:15:35.976Z,64.55
2023-05-05T08:16:36.298Z,64.95
2023-05-05T08:17:36.275Z,66.70
2023-05-05T08:18:36.428Z,64.52
2023-05-05T08:19:36.538Z,64.33
2023-05-05T08:20:36.648Z,64.86
2023-05-05T08:21:36.750Z,64.61
2023-05-05T08:22:36.958Z,64.01
2023-05-05T08:23:37.059Z,63.89
2023-05-05T08:24:37.191Z,63.93
2023-05-05T08:25:37.277Z,64.02
2023-05-05T08:26:37.362Z,63.71
2023-05-05T08:27:37.529Z,65.44
2023-05-05T08:28:37.637Z,65.15
2023-05-05T08:29:37.743Z,63.88
2023-05-05T08:30:37.845Z,63.63
2023-05-05T08:31:38.082Z,63.77
2023-05-05T08:32:38.092Z,64.46
2023-05-05T08:33:38.249Z,64.59
2023-05-05T08:34:38.355Z,65.15
2023-05-05T08:35:38.466Z,64.62
2023-05-05T08:36:38.592Z,64.77
2023-05-05T08:37:38.754Z,65.46
2023-05-05T08:38:38.858Z,65.33
2023-05-05T08:39:39.015Z,64.48
2023-05-05T08:40:39.179Z,64.56
2023-05-05T08:41:39.289Z,64.67
2023-05-05T08:42:39.781Z,65.63
2023-05-05T08:43:39.519Z,64.92
2023-05-05T08:44:39.635Z,66.02
2023-05-05T08:45:39.807Z,66.03
2023-05-05T08:46:39.879Z,65.06
2023-05-05T08:47:40.158Z,66.02
2023-05-05T08:48:40.063Z,63.82
2023-05-05T08:49:40.184Z,62.89
2023-05-05T08:50:40.345Z,63.00
2023-05-05T08:51:40.411Z,63.21
2023-05-05T08:52:40.685Z,62.68
2023-05-05T08:53:40.665Z,62.70
2023-05-05T08:54:40.756Z,63.25
2023-05-05T08:55:40.878Z,62.75
2023-05-05T08:56:41.037Z,62.78
2023-05-05T08:57:41.140Z,63.34
2023-05-05T08:58:41.233Z,63.53
2023-05-05T08:59:41.503Z,62.69
2023-05-05T09:00:41.546Z,60.49
2023-05-05T09:01:41.592Z,59.67
2023-05-05T09:02:41.837Z,61.32
2023-05-05T09:03:42.305Z,60.51
2023-05-05T09:04:42.011Z,60.34
2023-05-05T09:05:42.175Z,59.76
2023-05-05T09:06:42.296Z,59.49
2023-05-05T09:07:42.464Z,60.03
2023-05-05T09:08:42.517Z,60.98
2023-05-05T09:09:42.647Z,62.39
2023-05-05T09:10:42.825Z,64.09
2023-05-05T09:11:43.014Z,62.36
2023-05-05T09:12:43.126Z,61.34
2023-05-05T09:13:43.185Z,61.54
2023-05-05T09:14:43.283Z,60.12
2023-05-05T09:15:43.450Z,60.53
2023-05-05T09:16:43.522Z,60.35
2023-05-05T09:17:43.735Z,60.14
2023-05-05T09:18:43.722Z,59.16
2023-05-05T09:19:43.828Z,59.84
2023-05-05T09:20:43.990Z,59.72
2023-05-05T09:21:44.196Z,60.37
2023-05-05T09:22:44.251Z,61.27
2023-05-05T09:23:44.364Z,59.70
2023-05-05T09:24:44.487Z,58.03
2023-05-05T09:25:44.630Z,58.29
2023-05-05T09:26:44.763Z,57.07
2023-05-05T09:27:44.956Z,57.42
2023-05-05T09:28:44.999Z,57.04
2023-05-05T09:29:45.151Z,56.95
2023-05-05T09:30:45.288Z,57.57
2023-05-05T09:31:45.376Z,56.96
2023-05-05T09:32:45.529Z,56.53
2023-05-05T09:33:45.578Z,56.85
2023-05-05T09:34:45.715Z,57.06
2023-05-05T09:35:45.869Z,56.66
2023-05-05T09:36:46.032Z,56.09
2023-05-05T09:37:46.084Z,57.33
2023-05-05T09:38:46.196Z,58.34
2023-05-05T09:39:46.322Z,57.93
2023-05-05T09:40:46.478Z,57.63
2023-05-05T09:41:46.619Z,57.96
2023-05-05T09:42:46.720Z,57.52
2023-05-05T09:43:46.876Z,56.55
2023-05-05T09:44:47.011Z,57.05
2023-05-05T09:45:47.157Z,57.77
2023-05-05T09:46:47.337Z,58.95
2023-05-05T09:47:47.721Z,59.17
2023-05-05T09:48:47.501Z,59.83
2023-05-05T09:49:47.643Z,59.70
2023-05-05T09:50:47.818Z,59.56
2023-05-05T09:51:47.928Z,58.33
2023-05-05T09:52:48.162Z,59.51
2023-05-05T09:53:48.113Z,57.38
2023-05-05T09:54:48.265Z,58.09
2023-05-05T09:55:48.400Z,57.58
2023-05-05T09:56:48.509Z,57.93
2023-05-05T09:57:48.682Z,58.53
2023-05-05T09:58:48.769Z,59.02
2023-05-05T09:59:48.925Z,58.19
2023-05-05T10:00:49.046Z,58.83
2023-05-05T10:01:49.180Z,59.07
2023-05-05T10:02:49.358Z,59.35
2023-05-05T10:03:49.693Z,59.39
2023-05-05T10:04:49.601Z,59.73
2023-05-05T10:05:49.703Z,59.80
2023-05-05T10:06:49.813Z,60.25
2023-05-05T10:07:50.059Z,60.91
2023-05-05T10:08:50.128Z,60.18
2023-05-05T10:09:50.230Z,60.05
2023-05-05T10:10:50.379Z,60.60
2023-05-05T10:11:50.498Z,60.96
2023-05-05T10:12:50.644Z,61.00
2023-05-05T10:13:50.730Z,61.25
2023-05-05T10:14:50.816Z,61.68
2023-05-05T10:15:51.050Z,62.50
2023-05-05T10:16:51.114Z,62.43
2023-05-05T10:18:06.068Z,62.37
2023-05-05T10:18:52.366Z,62.37
2023-05-05T10:19:51.491Z,63.15
2023-05-05T10:20:51.596Z,64.41
2023-05-05T10:21:51.728Z,64.25
2023-05-05T10:22:51.838Z,65.11
2023-05-05T10:23:51.930Z,64.62
2023-05-05T10:24:52.040Z,64.80
2023-05-05T10:25:52.168Z,65.10
2023-05-05T10:26:52.295Z,65.09
2023-05-05T10:27:52.424Z,64.90
2023-05-05T10:28:52.477Z,65.36
2023-05-05T10:29:52.559Z,65.47
2023-05-05T10:30:52.682Z,66.15
2023-05-05T10:31:52.861Z,64.59
2023-05-05T10:33:05.029Z,62.55
2023-05-05T10:33:54.105Z,62.07
2023-05-05T10:34:53.171Z,59.66
2023-05-05T10:35:53.264Z,58.49
2023-05-05T10:36:53.425Z,58.20
2023-05-05T10:37:53.511Z,58.76
2023-05-05T10:38:53.665Z,59.18
2023-05-05T10:39:53.814Z,59.06
2023-05-05T10:40:53.960Z,59.80
2023-05-05T10:41:54.120Z,59.30
2023-05-05T10:42:54.196Z,62.86
2023-05-05T10:43:54.307Z,65.15
2023-05-05T10:44:54.452Z,67.12
2023-05-05T10:45:54.720Z,69.16
2023-05-05T10:46:54.710Z,73.58
2023-05-05T10:47:54.836Z,75.00
2023-05-05T10:48:54.940Z,73.58
2023-05-05T10:49:55.062Z,75.02
2023-05-05T10:50:55.217Z,74.34
2023-05-05T10:51:55.432Z,73.90
2023-05-05T10:52:55.464Z,76.20
2023-05-05T10:53:55.605Z,75.76
2023-05-05T10:54:55.777Z,73.74
2023-05-05T10:55:55.846Z,71.58
2023-05-05T10:56:55.972Z,70.92
2023-05-05T10:57:56.073Z,70.16
2023-05-05T10:59:00.132Z,69.25
2023-05-05T10:59:56.332Z,69.43
2023-05-05T11:00:56.531Z,71.02
2023-05-05T11:01:56.624Z,71.10
2023-05-05T11:02:56.853Z,69.06
2023-05-05T11:03:56.889Z,69.10
2023-05-05T11:04:56.998Z,68.22
2023-05-05T11:05:57.140Z,67.29
2023-05-05T11:06:57.291Z,67.53
2023-05-05T11:07:57.451Z,68.60
2023-05-05T11:08:57.522Z,67.66
2023-05-05T11:09:57.700Z,67.45
2023-05-05T11:10:57.797Z,66.48
2023-05-05T11:11:57.941Z,65.77
2023-05-05T11:12:58.180Z,64.84
2023-05-05T11:13:58.250Z,63.82
2023-05-05T11:14:58.362Z,65.44
2023-05-05T11:15:58.455Z,67.68
2023-05-05T11:16:58.716Z,64.14
2023-05-05T11:17:58.766Z,63.53
2023-05-05T11:18:58.820Z,63.57
2023-05-05T11:19:58.902Z,63.64
2023-05-05T11:20:59.074Z,63.86
2023-05-05T11:21:59.161Z,64.76
2023-05-05T11:22:59.285Z,63.92
2023-05-05T11:23:59.417Z,64.57
2023-05-05T11:24:59.514Z,65.45
2023-05-05T11:25:59.641Z,66.18
2023-05-05T11:26:59.735Z,65.38
2023-05-05T11:27:59.939Z,62.87
2023-05-05T11:28:59.974Z,65.64
2023-05-05T11:30:00.189Z,63.89
2023-05-05T11:31:00.260Z,62.91
2023-05-05T11:32:00.321Z,62.79
2023-05-05T11:33:00.463Z,62.56
2023-05-05T11:34:00.578Z,63.29
2023-05-05T11:35:00.715Z,63.89
2023-05-05T11:36:01.848Z,63.82
2023-05-05T11:37:00.931Z,64.51
2023-05-05T11:38:01.052Z,64.00
2023-05-05T11:39:01.225Z,64.69
2023-05-05T11:40:01.335Z,65.33
2023-05-05T11:41:01.416Z,64.71
2023-05-05T11:42:05.378Z,63.90
2023-05-05T11:43:02.705Z,64.25
2023-05-05T11:44:01.827Z,64.34
2023-05-05T11:45:01.944Z,64.64
2023-05-05T11:46:02.092Z,65.39
2023-05-05T11:47:04.728Z,63.77
2023-05-05T11:48:02.419Z,64.65
2023-05-05T11:49:02.452Z,66.04
2023-05-05T11:50:02.564Z,65.26
2023-05-05T11:51:02.671Z,66.23
2023-05-05T11:52:02.777Z,64.64
2023-05-05T11:53:02.880Z,62.94
2023-05-05T11:54:03.022Z,63.33
2023-05-05T11:55:03.084Z,63.71
2023-05-05T11:56:03.175Z,63.59
2023-05-05T11:57:03.272Z,64.57
2023-05-05T11:58:03.375Z,64.12
2023-05-05T11:59:03.585Z,64.05
2023-05-05T12:00:03.685Z,62.93
2023-05-05T12:01:03.773Z,63.99
2023-05-05T12:02:03.908Z,63.05
2023-05-05T12:03:04.148Z,62.63
2023-05-05T12:04:04.250Z,62.58
2023-05-05T12:05:04.345Z,61.43
2023-05-05T12:06:04.412Z,61.47
2023-05-05T12:07:04.540Z,61.33
2023-05-05T12:08:04.681Z,59.90
2023-05-05T12:09:04.795Z,60.64
2023-05-05T12:10:05.008Z,61.26
2023-05-05T12:11:05.068Z,61.50
2023-05-05T12:12:05.143Z,61.10
2023-05-05T12:13:05.281Z,60.53
2023-05-05T12:14:05.331Z,60.07
2023-05-05T12:15:05.494Z,59.56
2023-05-05T12:16:05.617Z,59.87
2023-05-05T12:17:05.721Z,60.73
2023-05-05T12:18:05.854Z,60.43
2023-05-05T12:19:05.944Z,59.70
2023-05-05T12:20:06.288Z,59.38
2023-05-05T12:21:06.271Z,59.69
2023-05-05T12:22:06.377Z,61.07
2023-05-05T12:23:06.507Z,60.33
2023-05-05T12:24:06.655Z,60.37
2023-05-05T12:25:06.860Z,60.20
2023-05-05T12:26:06.904Z,59.65
2023-05-05T12:27:07.051Z,60.00
2023-05-05T12:28:07.289Z,58.96
2023-05-05T12:29:07.308Z,59.26
2023-05-05T12:30:07.728Z,59.32
2023-05-05T12:31:07.689Z,60.01
2023-05-05T12:32:07.749Z,57.90
2023-05-05T12:33:07.855Z,58.60
2023-05-05T12:34:08.001Z,59.04
2023-05-05T12:35:08.159Z,59.43
2023-05-05T12:36:08.231Z,57.56
2023-05-05T12:37:08.334Z,58.42
2023-05-05T12:38:08.491Z,57.35
2023-05-05T12:39:08.614Z,57.64
2023-05-05T12:40:09.058Z,57.39
2023-05-05T12:41:08.895Z,59.80
2023-05-05T12:42:08.993Z,57.88
2023-05-05T12:43:09.116Z,56.60
2023-05-05T12:44:09.265Z,57.01
2023-05-05T12:45:09.401Z,56.16
2023-05-05T12:46:09.752Z,55.65
2023-05-05T12:47:09.647Z,56.79
2023-05-05T12:48:09.769Z,57.49
2023-05-05T12:49:09.877Z,56.34
2023-05-05T12:50:10.226Z,56.83
2023-05-05T12:51:10.128Z,55.57
2023-05-05T12:52:10.255Z,55.89
2023-05-05T12:53:10.369Z,55.10
2023-05-05T12:54:10.461Z,54.93
2023-05-05T12:55:10.677Z,53.88